createdAt,value
2022-12-25T00:01:20.218Z,5.26
2022-12-25T00:03:48.293Z,5.27
2022-12-25T00:06:15.678Z,5.31
2022-12-25T00:08:43.014Z,5.42
2022-12-25T00:11:16.447Z,5.40
2022-12-25T00:13:44.095Z,5.49
2022-12-25T00:16:17.281Z,5.48
2022-12-25T00:18:44.903Z,5.44
2022-12-25T00:21:12.299Z,5.56
2022-12-25T00:23:39.663Z,5.66
2022-12-25T00:26:09.298Z,5.76
2022-12-25T00:28:36.673Z,5.90
2022-12-25T00:31:09.231Z,5.90
2022-12-25T00:33:38.156Z,5.87
2022-12-25T00:36:06.576Z,5.83
2022-12-25T00:38:35.978Z,5.78
2022-12-25T00:41:11.574Z,5.72
2022-12-25T00:43:38.838Z,5.72
2022-12-25T00:46:07.066Z,5.68
2022-12-25T00:48:35.611Z,5.54
2022-12-25T00:51:05.903Z,5.46
2022-12-25T00:53:33.312Z,5.40
2022-12-25T00:56:03.262Z,5.29
2022-12-25T00:58:32.816Z,5.16
2022-12-25T01:01:00.371Z,5.09
2022-12-25T01:03:27.829Z,5.07
2022-12-25T01:06:00.767Z,4.91
2022-12-25T01:08:30.491Z,4.84
2022-12-25T01:11:03.883Z,4.76
2022-12-25T01:13:31.971Z,4.66
2022-12-25T01:15:59.374Z,4.74
2022-12-25T01:18:27.408Z,4.62
2022-12-25T01:20:54.493Z,4.58
2022-12-25T01:23:21.701Z,4.59
2022-12-25T01:25:48.848Z,4.59
2022-12-25T01:28:16.240Z,4.60
2022-12-25T01:30:49.942Z,4.62
2022-12-25T01:33:17.105Z,4.60
2022-12-25T01:35:44.287Z,4.55
2022-12-25T01:38:11.475Z,4.52
2022-12-25T01:40:39.273Z,4.45
2022-12-25T01:43:35.888Z,4.45
2022-12-25T01:46:03.953Z,4.38
2022-12-25T01:48:36.940Z,4.44
2022-12-25T01:51:09.450Z,4.48
2022-12-25T01:53:37.189Z,4.47
2022-12-25T01:56:08.720Z,4.45
2022-12-25T01:58:36.586Z,4.37
2022-12-25T02:01:06.700Z,4.34
2022-12-25T02:03:34.333Z,4.29
2022-12-25T02:06:04.214Z,4.22
2022-12-25T02:08:31.872Z,4.22
2022-12-25T02:10:59.642Z,4.23
2022-12-25T02:13:26.786Z,4.31
2022-12-25T02:16:25.320Z,4.29
2022-12-25T02:18:56.632Z,4.28
2022-12-25T02:21:54.781Z,4.27
2022-12-25T02:24:56.508Z,4.24
2022-12-25T02:28:01.504Z,4.16
2022-12-25T02:30:35.288Z,4.09
2022-12-25T02:33:28.600Z,4.02
2022-12-25T02:35:57.406Z,3.95
2022-12-25T02:38:37.658Z,3.96
2022-12-25T02:41:15.592Z,3.94
2022-12-25T02:44:04.876Z,3.90
2022-12-25T02:46:51.907Z,3.96
2022-12-25T02:49:41.810Z,4.05
2022-12-25T02:52:39.482Z,4.11
2022-12-25T02:55:29.918Z,4.19
2022-12-25T02:58:21.040Z,4.26
2022-12-25T03:01:13.373Z,4.33
2022-12-25T03:04:00.644Z,4.39
2022-12-25T03:06:46.048Z,4.32
2022-12-25T03:09:41.629Z,4.15
2022-12-25T03:12:51.674Z,4.05
2022-12-25T03:15:43.709Z,4.11
2022-12-25T03:18:28.680Z,4.11
2022-12-25T03:21:23.774Z,4.08
2022-12-25T03:24:16.481Z,4.12
2022-12-25T03:26:57.009Z,4.03
2022-12-25T03:29:52.256Z,3.98
2022-12-25T03:32:45.241Z,3.98
2022-12-25T03:35:23.456Z,3.97
2022-12-25T03:38:40.355Z,3.94
2022-12-25T03:41:44.610Z,3.97
2022-12-25T03:44:45.779Z,3.99
2022-12-25T03:47:35.753Z,4.01
2022-12-25T03:51:04.449Z,4.04
2022-12-25T03:53:54.284Z,4.03
2022-12-25T03:56:40.921Z,3.88
2022-12-25T03:59:26.385Z,3.78
2022-12-25T04:02:11.813Z,3.77
2022-12-25T04:04:57.720Z,3.84
2022-12-25T04:07:43.594Z,3.88
2022-12-25T04:10:29.643Z,3.81
2022-12-25T04:13:15.280Z,3.89
2022-12-25T04:16:00.891Z,3.78
2022-12-25T04:18:46.441Z,3.75
2022-12-25T04:21:32.305Z,3.75
2022-12-25T04:24:18.236Z,3.64
2022-12-25T04:27:03.866Z,3.71
2022-12-25T04:29:49.555Z,3.89
2022-12-25T04:32:35.157Z,3.91
2022-12-25T04:35:20.720Z,3.75
2022-12-25T04:37:47.729Z,3.73
2022-12-25T04:40:14.931Z,3.72
2022-12-25T04:42:41.986Z,3.75
2022-12-25T04:45:09.844Z,3.58
2022-12-25T04:47:36.833Z,3.57
2022-12-25T04:50:04.354Z,3.61
2022-12-25T04:52:37.230Z,3.55
2022-12-25T04:55:06.060Z,3.57
2022-12-25T04:57:33.825Z,3.57
2022-12-25T05:00:00.911Z,3.49
2022-12-25T05:02:28.042Z,3.45
2022-12-25T05:04:55.295Z,3.44
2022-12-25T05:07:22.434Z,3.39
2022-12-25T05:09:49.575Z,3.38
2022-12-25T05:12:16.768Z,3.40
2022-12-25T05:14:44.132Z,3.43
2022-12-25T05:17:11.138Z,3.39
2022-12-25T05:19:38.219Z,3.42
2022-12-25T05:22:05.324Z,3.45
2022-12-25T05:24:32.391Z,3.44
2022-12-25T05:26:59.429Z,3.45
2022-12-25T05:29:26.632Z,3.40
2022-12-25T05:31:53.690Z,3.36
2022-12-25T05:34:20.809Z,3.28
2022-12-25T05:36:47.845Z,3.15
2022-12-25T05:39:14.904Z,3.07
2022-12-25T05:41:42.510Z,2.90
2022-12-25T05:44:09.651Z,2.88
2022-12-25T05:46:36.735Z,2.88
2022-12-25T05:49:05.618Z,2.98
2022-12-25T05:51:32.884Z,2.87
2022-12-25T05:54:00.109Z,2.82
2022-12-25T05:56:27.139Z,2.85
2022-12-25T05:58:54.390Z,2.77
2022-12-25T06:01:24.386Z,2.74
2022-12-25T06:03:51.748Z,2.71
2022-12-25T06:06:19.056Z,2.82
2022-12-25T06:08:46.657Z,2.82
2022-12-25T06:11:15.602Z,2.86
2022-12-25T06:13:42.860Z,2.90
2022-12-25T06:16:11.597Z,2.96
2022-12-25T06:18:41.146Z,3.06
2022-12-25T06:21:10.056Z,3.09
2022-12-25T06:23:38.393Z,2.98
2022-12-25T06:26:07.897Z,2.89
2022-12-25T06:28:35.556Z,2.84
2022-12-25T06:31:10.053Z,2.82
2022-12-25T06:33:37.454Z,2.83
2022-12-25T06:36:08.874Z,2.87
2022-12-25T06:38:36.505Z,2.92
2022-12-25T06:41:05.605Z,2.96
2022-12-25T06:43:32.733Z,2.86
2022-12-25T06:46:05.606Z,2.88
2022-12-25T06:48:37.187Z,2.75
2022-12-25T06:51:05.903Z,2.58
2022-12-25T06:53:39.858Z,2.39
2022-12-25T06:56:16.021Z,2.31
2022-12-25T06:58:48.586Z,2.17
2022-12-25T07:01:28.325Z,2.14
2022-12-25T07:03:59.766Z,2.08
2022-12-25T07:06:27.241Z,1.99
2022-12-25T07:08:54.406Z,2.05
2022-12-25T07:11:22.042Z,2.06
2022-12-25T07:13:49.229Z,1.96
2022-12-25T07:16:16.963Z,2.04
2022-12-25T07:18:44.311Z,2.06
2022-12-25T07:21:17.468Z,2.14
2022-12-25T07:23:45.943Z,2.12
2022-12-25T07:26:13.640Z,2.13
2022-12-25T07:28:41.245Z,2.13
2022-12-25T07:31:14.862Z,1.96
2022-12-25T07:33:42.588Z,1.84
2022-12-25T07:36:12.801Z,1.85
2022-12-25T07:38:43.873Z,1.78
2022-12-25T07:41:13.183Z,1.81
2022-12-25T07:43:40.438Z,1.95
2022-12-25T07:46:08.291Z,1.93
2022-12-25T07:48:35.856Z,1.98
2022-12-25T07:51:10.078Z,2.14
2022-12-25T07:53:38.065Z,2.19
2022-12-25T07:56:32.553Z,2.32
2022-12-25T07:59:22.335Z,2.30
2022-12-25T08:05:15.443Z,2.38
2022-12-25T08:07:42.850Z,2.48
2022-12-25T08:10:10.428Z,2.59
2022-12-25T08:12:45.107Z,2.70
2022-12-25T08:15:12.328Z,2.42
2022-12-25T08:17:39.786Z,2.42
2022-12-25T08:20:07.531Z,2.47
2022-12-25T08:22:40.574Z,2.38
2022-12-25T08:25:08.815Z,2.40
2022-12-25T08:27:41.829Z,2.34
2022-12-25T08:30:09.420Z,2.35
2022-12-25T08:32:39.536Z,2.39
2022-12-25T08:35:07.288Z,2.58
2022-12-25T08:37:36.435Z,2.65
2022-12-25T08:40:04.485Z,2.57
2022-12-25T08:42:33.444Z,2.58
2022-12-25T08:45:01.606Z,2.53
2022-12-25T08:47:28.795Z,2.49
2022-12-25T08:49:55.914Z,2.45
2022-12-25T08:52:23.057Z,2.59
2022-12-25T08:54:50.162Z,2.60
2022-12-25T08:57:17.238Z,2.73
2022-12-25T08:59:44.353Z,2.88
2022-12-25T09:02:12.837Z,3.13
2022-12-25T09:04:40.074Z,3.24
2022-12-25T09:07:07.173Z,3.56
2022-12-25T09:09:34.279Z,3.87
2022-12-25T09:12:01.418Z,3.92
2022-12-25T09:14:28.844Z,3.78
2022-12-25T09:16:55.939Z,3.72
2022-12-25T09:19:23.098Z,3.79
2022-12-25T09:21:50.229Z,3.86
2022-12-25T09:24:17.417Z,3.94
2022-12-25T09:26:44.535Z,3.69
2022-12-25T09:29:11.639Z,3.56
2022-12-25T09:31:39.907Z,3.65
2022-12-25T09:34:07.073Z,3.98
2022-12-25T09:36:34.151Z,3.84
2022-12-25T09:39:01.720Z,4.14
2022-12-25T09:41:46.675Z,4.52
2022-12-25T09:44:19.577Z,4.79
2022-12-25T09:47:24.557Z,4.83
2022-12-25T09:49:57.908Z,5.18
2022-12-25T09:52:55.114Z,4.77
2022-12-25T09:55:24.796Z,4.68
2022-12-25T09:57:55.614Z,4.72
2022-12-25T10:00:34.688Z,4.73
2022-12-25T10:03:24.746Z,4.59
2022-12-25T10:06:18.006Z,4.50
2022-12-25T10:09:12.977Z,4.53
2022-12-25T10:11:55.739Z,4.62
2022-12-25T10:14:34.532Z,4.81
2022-12-25T10:17:45.323Z,4.97
2022-12-25T10:20:35.607Z,5.02
2022-12-25T10:23:06.281Z,4.96
2022-12-25T10:25:33.680Z,5.09
2022-12-25T10:28:05.475Z,5.02
2022-12-25T10:30:32.640Z,5.00
2022-12-25T10:33:00.402Z,4.93
2022-12-25T10:35:29.988Z,4.70
2022-12-25T10:38:03.038Z,4.60
2022-12-25T10:40:53.395Z,4.72
2022-12-25T10:43:31.430Z,5.09
2022-12-25T10:45:59.261Z,5.27
2022-12-25T10:48:27.759Z,5.21
2022-12-25T10:50:55.968Z,4.98
2022-12-25T10:53:26.749Z,4.90
2022-12-25T10:56:02.867Z,4.90
2022-12-25T10:58:31.026Z,4.95
2022-12-25T11:01:04.896Z,5.43
2022-12-25T11:03:54.007Z,5.85
2022-12-25T11:06:24.437Z,6.33
2022-12-25T11:08:55.609Z,6.42
2022-12-25T11:11:23.569Z,6.49
2022-12-25T11:13:52.603Z,6.60
2022-12-25T11:16:28.954Z,6.95
2022-12-25T11:18:57.409Z,6.66
2022-12-25T11:21:34.373Z,6.57
2022-12-25T11:24:04.723Z,6.61
2022-12-25T11:26:45.814Z,6.57
2022-12-25T11:29:35.238Z,6.52
2022-12-25T11:32:05.768Z,6.37
2022-12-25T11:34:53.095Z,6.24
2022-12-25T11:37:44.248Z,6.22
2022-12-25T11:40:17.546Z,6.20
2022-12-25T11:42:50.216Z,6.27
2022-12-25T11:45:38.520Z,6.25
2022-12-25T11:48:14.540Z,6.32
2022-12-25T11:50:49.686Z,6.32
2022-12-25T11:53:22.488Z,6.37
2022-12-25T11:55:54.942Z,6.43
2022-12-25T11:58:30.726Z,6.48
2022-12-25T12:01:02.106Z,6.53
2022-12-25T12:03:33.734Z,6.50
2022-12-25T12:06:15.057Z,6.51
2022-12-25T12:08:43.507Z,6.54
2022-12-25T12:11:28.577Z,6.59
2022-12-25T12:14:13.030Z,6.65
2022-12-25T12:16:40.330Z,6.70
2022-12-25T12:19:31.442Z,6.70
2022-12-25T12:22:01.401Z,6.73
2022-12-25T12:24:36.209Z,6.78
2022-12-25T12:27:25.283Z,6.88
2022-12-25T12:29:57.042Z,6.96
2022-12-25T12:32:35.715Z,7.04
2022-12-25T12:35:09.256Z,7.06
2022-12-25T12:37:39.478Z,7.12
2022-12-25T12:40:21.627Z,7.22
2022-12-25T12:42:50.668Z,7.24
2022-12-25T12:45:18.181Z,7.31
2022-12-25T12:47:48.140Z,7.31
2022-12-25T12:50:33.937Z,7.36
2022-12-25T12:53:35.453Z,7.34
2022-12-25T12:56:13.886Z,7.36
2022-12-25T12:58:48.514Z,7.35
2022-12-25T13:01:27.383Z,7.33
2022-12-25T13:04:28.234Z,7.33
2022-12-25T13:07:17.307Z,7.29
2022-12-25T13:09:53.302Z,7.23
2022-12-25T13:12:22.351Z,7.17
2022-12-25T13:14:50.307Z,7.10
2022-12-25T13:17:21.931Z,7.10
2022-12-25T13:19:55.210Z,7.10
2022-12-25T13:22:25.431Z,7.12
2022-12-25T13:24:58.946Z,7.14
2022-12-25T13:27:29.714Z,7.08
2022-12-25T13:29:58.598Z,7.11
2022-12-25T13:32:31.027Z,7.05
2022-12-25T13:35:00.369Z,7.04
2022-12-25T13:37:31.943Z,6.95
2022-12-25T13:40:03.252Z,6.91
2022-12-25T13:42:33.226Z,6.85
2022-12-25T13:45:03.445Z,6.81
2022-12-25T13:47:38.792Z,6.76
2022-12-25T13:50:48.452Z,6.70
2022-12-25T13:53:17.475Z,6.66
2022-12-25T13:55:50.782Z,6.60
2022-12-25T13:58:33.998Z,6.56
2022-12-25T14:01:02.949Z,6.55
2022-12-25T14:03:40.744Z,6.51
2022-12-25T14:06:29.647Z,6.49
2022-12-25T14:08:58.549Z,6.46
2022-12-25T14:11:28.728Z,6.50
2022-12-25T14:14:03.497Z,6.42
2022-12-25T14:16:30.825Z,6.42
2022-12-25T14:19:01.787Z,6.39
2022-12-25T14:21:41.055Z,6.36
2022-12-25T14:24:16.335Z,6.33
2022-12-25T14:26:44.053Z,6.32
2022-12-25T14:29:18.109Z,6.30
2022-12-25T14:31:47.433Z,6.30
2022-12-25T14:34:23.947Z,6.28
2022-12-25T14:36:53.213Z,6.23
2022-12-25T14:39:36.317Z,6.21
2022-12-25T14:42:18.093Z,6.16
2022-12-25T14:44:57.210Z,6.13
2022-12-25T14:47:24.908Z,6.14
2022-12-25T14:49:53.828Z,6.17
2022-12-25T14:52:31.350Z,6.28
2022-12-25T14:55:19.382Z,6.29
2022-12-25T14:57:53.726Z,6.37
2022-12-25T15:00:32.147Z,6.31
2022-12-25T15:03:01.345Z,6.33
2022-12-25T15:05:33.598Z,6.34
2022-12-25T15:08:07.028Z,6.33
2022-12-25T15:13:24.763Z,6.32
2022-12-25T15:15:55.522Z,6.34
2022-12-25T15:18:24.891Z,6.37
2022-12-25T15:20:53.019Z,6.40
2022-12-25T15:23:21.438Z,6.37
2022-12-25T15:25:53.747Z,6.38
2022-12-25T15:28:21.398Z,6.39
2022-12-25T15:30:50.021Z,6.39
2022-12-25T15:33:18.651Z,6.38
2022-12-25T15:35:45.944Z,6.37
2022-12-25T15:38:13.645Z,6.42
2022-12-25T15:40:42.485Z,6.41
2022-12-25T15:43:38.704Z,6.41
2022-12-25T15:46:01.250Z,6.42
2022-12-25T15:48:28.401Z,6.48
2022-12-25T15:50:55.454Z,6.48
2022-12-25T15:53:42.567Z,6.52
2022-12-25T15:56:14.479Z,6.51
2022-12-25T15:58:44.389Z,6.54
2022-12-25T16:01:15.525Z,6.57
2022-12-25T16:03:46.691Z,6.57
2022-12-25T16:06:16.894Z,6.55
2022-12-25T16:08:49.491Z,6.54
2022-12-25T16:11:23.633Z,6.51
2022-12-25T16:13:51.012Z,6.53
2022-12-25T16:16:18.457Z,6.53
2022-12-25T16:18:47.543Z,6.52
2022-12-25T16:21:17.825Z,6.54
2022-12-25T16:23:45.355Z,6.58
2022-12-25T16:26:12.468Z,6.65
2022-12-25T16:28:39.570Z,6.62
2022-12-25T16:31:14.521Z,6.65
2022-12-25T16:33:42.140Z,6.65
2022-12-25T16:36:11.197Z,6.64
2022-12-25T16:38:39.317Z,6.72
2022-12-25T16:41:06.616Z,6.68
2022-12-25T16:43:33.709Z,6.68
2022-12-25T16:46:00.891Z,6.72
2022-12-25T16:48:29.137Z,6.71
2022-12-25T16:51:04.584Z,6.74
2022-12-25T16:53:31.693Z,6.69
2022-12-25T16:56:12.040Z,6.62
2022-12-25T16:58:44.309Z,6.66
2022-12-25T17:01:15.470Z,6.58
2022-12-25T17:03:52.259Z,6.56
2022-12-25T17:06:34.220Z,6.50
2022-12-25T17:09:08.224Z,6.51
2022-12-25T17:11:38.304Z,6.50
2022-12-25T17:14:13.582Z,6.50
2022-12-25T17:16:40.875Z,6.49
2022-12-25T17:19:19.976Z,6.46
2022-12-25T17:21:47.898Z,6.48
2022-12-25T17:24:15.711Z,6.47
2022-12-25T17:26:44.671Z,6.50
2022-12-25T17:29:14.759Z,6.55
2022-12-25T17:31:52.492Z,6.58
2022-12-25T17:34:20.148Z,6.60
2022-12-25T17:36:55.451Z,6.64
2022-12-25T17:39:24.329Z,6.69
2022-12-25T17:41:54.519Z,6.72
2022-12-25T17:44:22.119Z,6.77
2022-12-25T17:46:50.694Z,6.81
2022-12-25T17:49:23.501Z,6.82
2022-12-25T17:51:59.901Z,6.84
2022-12-25T17:54:32.723Z,6.89
2022-12-25T17:57:04.822Z,6.91
2022-12-25T17:59:39.553Z,6.93
2022-12-25T18:02:15.604Z,6.97
2022-12-25T18:04:50.816Z,6.96
2022-12-25T18:07:20.650Z,7.02
2022-12-25T18:09:47.960Z,7.03
2022-12-25T18:12:15.133Z,7.05
2022-12-25T18:14:42.283Z,7.03
2022-12-25T18:17:09.561Z,7.08
2022-12-25T18:19:36.733Z,7.05
2022-12-25T18:22:06.221Z,7.05
2022-12-25T18:24:37.411Z,7.10
2022-12-25T18:27:04.660Z,7.11
2022-12-25T18:29:36.157Z,7.15
2022-12-25T18:32:03.303Z,7.13
2022-12-25T18:34:37.744Z,7.14
2022-12-25T18:37:05.664Z,7.18
2022-12-25T18:39:36.950Z,7.16
2022-12-25T18:42:26.091Z,7.17
2022-12-25T18:44:59.120Z,7.21
2022-12-25T18:47:27.467Z,7.26
2022-12-25T18:49:54.590Z,7.26
2022-12-25T18:52:50.130Z,7.34
2022-12-25T18:55:09.724Z,7.39
2022-12-25T18:57:37.791Z,7.37
2022-12-25T19:00:12.944Z,7.44
2022-12-25T19:02:40.283Z,7.42
2022-12-25T19:05:07.753Z,7.39
2022-12-25T19:07:35.818Z,7.35
2022-12-25T19:10:12.333Z,7.34
2022-12-25T19:12:45.008Z,7.36
2022-12-25T19:15:13.307Z,7.37
2022-12-25T19:17:40.615Z,7.34
2022-12-25T19:20:11.624Z,7.42
2022-12-25T19:22:38.713Z,7.39
2022-12-25T19:25:06.829Z,7.42
2022-12-25T19:27:34.098Z,7.60
2022-12-25T19:30:01.436Z,7.63
2022-12-25T19:32:31.083Z,7.69
2022-12-25T19:35:07.323Z,7.72
2022-12-25T19:37:38.100Z,7.70
2022-12-25T19:40:08.949Z,7.68
2022-12-25T19:42:36.063Z,7.81
2022-12-25T19:45:04.947Z,7.87
2022-12-25T19:47:34.330Z,7.93
2022-12-25T19:50:03.365Z,7.95
2022-12-25T19:52:32.428Z,8.07
2022-12-25T19:55:02.319Z,8.26
2022-12-25T19:57:35.323Z,8.31
2022-12-25T20:00:06.340Z,8.38
2022-12-25T20:02:53.121Z,8.46
2022-12-25T20:05:28.039Z,8.51
2022-12-25T20:08:02.057Z,8.52
2022-12-25T20:10:29.346Z,8.53
2022-12-25T20:12:58.184Z,8.51
2022-12-25T20:15:26.442Z,8.56
2022-12-25T20:17:56.351Z,8.59
2022-12-25T20:20:46.161Z,8.65
2022-12-25T20:23:16.714Z,8.72
2022-12-25T20:25:43.896Z,8.70
2022-12-25T20:28:14.180Z,8.79
2022-12-25T20:30:42.037Z,8.80
2022-12-25T20:33:18.128Z,8.84
2022-12-25T20:35:49.476Z,8.93
2022-12-25T20:38:20.293Z,8.95
2022-12-25T20:41:24.965Z,8.97
2022-12-25T20:43:41.580Z,9.09
2022-12-25T20:46:15.326Z,9.01
2022-12-25T20:48:42.771Z,8.94
2022-12-25T20:51:20.411Z,8.99
2022-12-25T20:53:52.301Z,8.94
2022-12-25T20:56:21.972Z,8.91
2022-12-25T20:58:59.003Z,8.89
2022-12-25T21:01:27.621Z,8.93
2022-12-25T21:03:55.526Z,8.97
2022-12-25T21:06:23.021Z,9.06
2022-12-25T21:08:53.619Z,9.16
2022-12-25T21:11:24.464Z,9.15
2022-12-25T21:13:52.210Z,9.18
2022-12-25T21:16:22.240Z,9.19
2022-12-25T21:18:53.732Z,9.20
2022-12-25T21:21:21.989Z,9.16
2022-12-25T21:23:49.549Z,9.11
2022-12-25T21:26:22.983Z,9.09
2022-12-25T21:28:53.636Z,9.07
2022-12-25T21:31:21.721Z,9.01
2022-12-25T21:33:53.671Z,8.95
2022-12-25T21:36:31.961Z,8.93
2022-12-25T21:39:02.180Z,8.91
2022-12-25T21:41:31.453Z,8.87
2022-12-25T21:43:59.877Z,8.82
2022-12-25T21:46:31.354Z,8.81
2022-12-25T21:48:59.167Z,8.77
2022-12-25T21:51:48.094Z,8.76
2022-12-25T21:54:16.053Z,8.70
2022-12-25T21:56:45.393Z,8.76
2022-12-25T21:59:18.316Z,8.70
2022-12-25T22:01:46.640Z,8.59
2022-12-25T22:04:15.831Z,8.54
2022-12-25T22:07:02.330Z,8.48
2022-12-25T22:09:29.854Z,8.39
2022-12-25T22:12:17.083Z,8.36
2022-12-25T22:14:54.728Z,8.31
2022-12-25T22:17:49.756Z,8.26
2022-12-25T22:20:18.778Z,8.24
2022-12-25T22:22:47.638Z,8.22
2022-12-25T22:25:15.180Z,8.19
2022-12-25T22:27:44.245Z,8.23
2022-12-25T22:30:14.846Z,8.28
2022-12-25T22:32:44.865Z,8.33
2022-12-25T22:35:13.138Z,8.40
2022-12-25T22:37:45.215Z,8.49
2022-12-25T22:40:15.412Z,8.52
2022-12-25T22:42:42.644Z,8.57
2022-12-25T22:45:10.647Z,8.60
2022-12-25T22:47:37.698Z,8.68
2022-12-25T22:50:05.172Z,8.61
2022-12-25T22:52:32.434Z,8.72
2022-12-25T22:54:59.864Z,8.86
2022-12-25T22:57:27.703Z,8.96
2022-12-25T22:59:55.289Z,8.98
2022-12-25T23:02:22.926Z,9.03
2022-12-25T23:04:50.204Z,8.99
2022-12-25T23:07:17.592Z,9.01
2022-12-25T23:09:44.893Z,9.04
2022-12-25T23:12:32.136Z,9.15
2022-12-25T23:14:59.414Z,9.06
2022-12-25T23:17:44.952Z,9.21
2022-12-25T23:20:33.288Z,9.25
2022-12-25T23:23:21.178Z,9.20
2022-12-25T23:26:06.746Z,9.08
2022-12-25T23:28:56.829Z,9.07
2022-12-25T23:31:30.594Z,9.24
2022-12-25T23:33:58.774Z,9.21
2022-12-25T23:36:25.955Z,9.15
2022-12-25T23:38:53.150Z,9.18
2022-12-25T23:41:21.494Z,9.22
2022-12-25T23:43:48.907Z,9.31
2022-12-25T23:46:16.695Z,9.35
2022-12-25T23:48:43.895Z,9.38
2022-12-25T23:51:11.070Z,9.31
2022-12-25T23:53:38.182Z,9.33
2022-12-25T23:56:05.698Z,9.49
2022-12-25T23:58:34.092Z,9.56
